createdAt,value
2018-05-03T00:00:08.906Z,12.33
2018-05-03T00:02:37.273Z,12.39
2018-05-03T00:05:05.592Z,12.43
2018-05-03T00:07:33.929Z,12.50
2018-05-03T00:10:02.279Z,12.52
2018-05-03T00:12:30.603Z,12.50
2018-05-03T00:14:58.937Z,12.49
2018-05-03T00:17:27.261Z,12.49
2018-05-03T00:19:55.619Z,12.49
2018-05-03T00:22:24.360Z,12.48
2018-05-03T00:24:52.734Z,12.50
2018-05-03T00:27:21.081Z,12.47
2018-05-03T00:29:49.496Z,12.49
2018-05-03T00:32:17.875Z,12.53
2018-05-03T00:34:46.182Z,12.53
2018-05-03T00:37:14.539Z,12.51
2018-05-03T00:39:42.907Z,12.47
2018-05-03T00:42:11.232Z,12.51
2018-05-03T00:44:39.575Z,12.52
2018-05-03T00:47:07.918Z,12.50
2018-05-03T00:49:36.347Z,12.55
2018-05-03T00:52:04.693Z,12.54
2018-05-03T00:54:44.832Z,12.52
2018-05-03T00:57:13.177Z,12.53
2018-05-03T00:59:41.535Z,12.60
2018-05-03T01:02:09.887Z,12.62
2018-05-03T01:04:38.225Z,12.65
2018-05-03T01:07:06.567Z,12.66
2018-05-03T01:09:34.919Z,12.72
2018-05-03T01:12:03.287Z,12.72
2018-05-03T01:14:31.616Z,12.73
2018-05-03T01:17:00.003Z,12.67
2018-05-03T01:19:28.428Z,12.62
2018-05-03T01:21:56.809Z,12.52
2018-05-03T01:24:25.162Z,12.50
2018-05-03T01:26:53.593Z,12.36
2018-05-03T01:29:21.944Z,12.32
2018-05-03T01:31:50.301Z,12.29
2018-05-03T01:34:18.645Z,12.29
2018-05-03T01:36:46.969Z,12.17
2018-05-03T01:39:15.318Z,12.16
2018-05-03T01:41:43.678Z,12.16
2018-05-03T01:44:12.043Z,12.14
2018-05-03T01:46:41.793Z,12.11
2018-05-03T01:49:10.147Z,12.08
2018-05-03T01:51:38.528Z,12.03
2018-05-03T01:54:06.912Z,12.07
2018-05-03T01:56:35.277Z,12.10
2018-05-03T01:59:03.671Z,12.08
2018-05-03T02:01:32.125Z,12.05
2018-05-03T02:04:01.236Z,12.10
2018-05-03T02:06:29.550Z,12.11
2018-05-03T02:08:57.911Z,12.18
2018-05-03T02:11:26.356Z,12.16
2018-05-03T02:13:54.751Z,12.16
2018-05-03T02:16:23.140Z,12.25
2018-05-03T02:18:51.459Z,12.26
2018-05-03T02:21:19.837Z,12.17
2018-05-03T02:23:48.219Z,12.20
2018-05-03T02:26:16.583Z,12.17
2018-05-03T02:28:44.890Z,12.18
2018-05-03T02:31:13.224Z,12.18
2018-05-03T02:33:41.599Z,12.15
2018-05-03T02:36:09.967Z,12.14
2018-05-03T02:38:38.325Z,12.14
2018-05-03T02:41:06.739Z,12.07
2018-05-03T02:43:35.066Z,11.99
2018-05-03T02:46:03.416Z,11.96
2018-05-03T02:48:31.743Z,11.96
2018-05-03T02:51:00.108Z,11.96
2018-05-03T02:53:28.498Z,11.94
2018-05-03T02:55:56.816Z,11.87
2018-05-03T02:58:37.054Z,11.87
2018-05-03T03:01:23.007Z,11.84
2018-05-03T03:04:08.820Z,11.93
2018-05-03T03:06:54.733Z,11.88
2018-05-03T03:13:09.910Z,11.96
2018-05-03T03:19:06.850Z,11.90
2018-05-03T03:21:53.308Z,11.92
2018-05-03T03:27:39.855Z,11.90
2018-05-03T03:30:19.995Z,11.85
2018-05-03T03:33:00.384Z,11.87
2018-05-03T03:38:48.372Z,11.93
2018-05-03T03:41:28.737Z,11.93
2018-05-03T03:44:08.836Z,11.85
2018-05-03T03:46:37.279Z,11.86
2018-05-03T03:49:05.684Z,11.85
2018-05-03T03:51:34.012Z,11.89
2018-05-03T03:54:02.438Z,11.89
2018-05-03T03:56:30.739Z,11.83
2018-05-03T03:58:59.083Z,11.84
2018-05-03T04:01:27.404Z,11.81
2018-05-03T04:03:55.749Z,11.83
2018-05-03T04:06:24.080Z,11.89
2018-05-03T04:08:52.988Z,11.89
2018-05-03T04:11:21.320Z,11.91
2018-05-03T04:13:49.686Z,11.90
2018-05-03T04:16:18.110Z,11.84
2018-05-03T04:18:58.095Z,11.93
2018-05-03T04:21:38.340Z,11.93
2018-05-03T04:24:18.732Z,12.04
2018-05-03T04:26:47.046Z,12.03
2018-05-03T04:29:15.403Z,12.09
2018-05-03T04:31:43.730Z,12.14
2018-05-03T04:34:12.140Z,12.19
2018-05-03T04:36:40.537Z,12.39
2018-05-03T04:39:08.871Z,12.40
2018-05-03T04:41:37.224Z,12.41
2018-05-03T04:44:05.547Z,12.44
2018-05-03T04:46:33.893Z,12.53
2018-05-03T04:49:02.215Z,12.50
2018-05-03T04:51:30.632Z,12.78
2018-05-03T04:53:59.023Z,12.56
2018-05-03T04:56:27.349Z,12.54
2018-05-03T04:58:55.715Z,12.55
2018-05-03T05:01:24.059Z,12.40
2018-05-03T05:03:52.388Z,12.37
2018-05-03T05:06:20.724Z,12.23
2018-05-03T05:08:49.065Z,12.11
2018-05-03T05:11:17.458Z,12.15
2018-05-03T05:13:45.864Z,12.18
2018-05-03T05:16:14.306Z,12.24
2018-05-03T05:18:42.611Z,12.32
2018-05-03T05:21:10.999Z,12.36
2018-05-03T05:23:39.347Z,12.53
2018-05-03T05:26:07.665Z,12.50
2018-05-03T05:28:35.992Z,12.57
2018-05-03T05:31:04.402Z,12.62
2018-05-03T05:33:32.791Z,12.55
2018-05-03T05:36:01.123Z,12.53
2018-05-03T05:38:29.528Z,12.56
2018-05-03T05:40:57.838Z,12.53
2018-05-03T05:43:26.282Z,12.63
2018-05-03T05:45:54.657Z,12.67
2018-05-03T05:48:23.002Z,12.70
2018-05-03T05:50:51.337Z,12.73
2018-05-03T05:53:19.727Z,12.80
2018-05-03T05:55:48.043Z,12.82
2018-05-03T05:58:16.412Z,12.81
2018-05-03T06:00:44.732Z,12.81
2018-05-03T06:03:13.065Z,12.95
2018-05-03T06:05:41.479Z,13.00
2018-05-03T06:08:09.854Z,13.13
2018-05-03T06:10:38.328Z,13.12
2018-05-03T06:13:06.665Z,13.11
2018-05-03T06:15:35.327Z,13.03
2018-05-03T06:18:03.665Z,13.03
2018-05-03T06:20:32.046Z,13.02
2018-05-03T06:23:00.443Z,13.03
2018-05-03T06:25:28.993Z,13.00
2018-05-03T06:27:57.485Z,12.95
2018-05-03T06:30:25.858Z,12.97
2018-05-03T06:32:54.165Z,13.00
2018-05-03T06:35:22.503Z,12.90
2018-05-03T06:37:51.002Z,12.91
2018-05-03T06:40:19.351Z,12.91
2018-05-03T06:42:47.680Z,12.95
2018-05-03T06:45:16.119Z,12.99
2018-05-03T06:47:44.415Z,13.00
2018-05-03T06:50:12.775Z,13.09
2018-05-03T06:52:41.061Z,13.06
2018-05-03T06:55:09.450Z,13.05
2018-05-03T06:57:37.781Z,12.98
2018-05-03T07:00:06.134Z,13.02
2018-05-03T07:02:34.472Z,13.05
2018-05-03T07:05:02.776Z,13.06
2018-05-03T07:07:31.102Z,13.14
2018-05-03T07:09:59.462Z,13.22
2018-05-03T07:12:27.744Z,13.25
2018-05-03T07:14:56.091Z,13.27
2018-05-03T07:17:24.461Z,13.37
2018-05-03T07:19:52.798Z,13.34
2018-05-03T07:22:21.134Z,13.33
2018-05-03T07:24:49.537Z,13.47
2018-05-03T07:27:17.928Z,13.53
2018-05-03T07:29:46.426Z,13.52
2018-05-03T07:32:14.747Z,13.50
2018-05-03T07:34:43.203Z,13.46
2018-05-03T07:37:11.417Z,13.50
2018-05-03T07:39:39.793Z,13.44
2018-05-03T07:42:08.194Z,13.45
2018-05-03T07:44:36.572Z,13.54
2018-05-03T07:47:04.929Z,13.62
2018-05-03T07:49:33.419Z,13.68
2018-05-03T07:52:01.744Z,13.83
2018-05-03T07:54:30.070Z,13.86
2018-05-03T07:56:58.434Z,13.91
2018-05-03T07:59:26.754Z,13.75
2018-05-03T08:01:55.088Z,13.72
2018-05-03T08:04:23.419Z,13.71
2018-05-03T08:06:51.746Z,13.64
2018-05-03T08:09:20.063Z,13.77
2018-05-03T08:11:48.380Z,13.85
2018-05-03T08:14:16.705Z,14.02
2018-05-03T08:16:45.090Z,14.12
2018-05-03T08:19:13.482Z,14.24
2018-05-03T08:21:41.816Z,14.52
2018-05-03T08:24:10.142Z,14.55
2018-05-03T08:26:38.545Z,14.66
2018-05-03T08:29:06.888Z,14.61
2018-05-03T08:31:35.310Z,14.83
2018-05-03T08:34:03.635Z,14.74
2018-05-03T08:36:31.947Z,14.73
2018-05-03T08:39:00.284Z,14.72
2018-05-03T08:41:28.607Z,14.60
2018-05-03T08:43:56.972Z,14.74
2018-05-03T08:46:25.364Z,14.83
2018-05-03T08:48:53.735Z,14.73
2018-05-03T08:51:22.079Z,14.97
2018-05-03T08:53:50.445Z,15.07
2018-05-03T08:56:18.757Z,15.19
2018-05-03T08:58:47.120Z,15.15
2018-05-03T09:01:15.469Z,15.28
2018-05-03T09:03:43.804Z,15.03
2018-05-03T09:06:12.227Z,15.20
2018-05-03T09:08:40.541Z,15.73
2018-05-03T09:11:08.977Z,16.25
2018-05-03T09:13:37.400Z,16.43
2018-05-03T09:16:05.972Z,16.38
2018-05-03T09:18:34.316Z,17.06
2018-05-03T09:21:02.716Z,17.14
2018-05-03T09:23:31.022Z,16.96
2018-05-03T09:25:59.415Z,17.63
2018-05-03T09:28:27.732Z,17.70
2018-05-03T09:30:56.079Z,17.89
2018-05-03T09:33:24.502Z,17.65
2018-05-03T09:35:52.840Z,17.48
2018-05-03T09:38:21.162Z,17.58
2018-05-03T09:40:49.498Z,17.36
2018-05-03T09:43:17.844Z,17.21
2018-05-03T09:45:46.273Z,17.08
2018-05-03T09:48:14.609Z,16.70
2018-05-03T09:50:43.167Z,16.56
2018-05-03T09:53:11.481Z,16.49
2018-05-03T09:55:39.841Z,16.62
2018-05-03T09:58:08.171Z,16.59
2018-05-03T10:00:36.487Z,16.24
2018-05-03T10:03:04.813Z,16.06
2018-05-03T10:05:33.219Z,16.02
2018-05-03T10:08:01.538Z,15.86
2018-05-03T10:10:29.898Z,15.86
2018-05-03T10:12:58.298Z,15.76
2018-05-03T10:15:26.698Z,15.72
2018-05-03T10:17:55.039Z,15.72
2018-05-03T10:20:23.995Z,15.79
2018-05-03T10:22:52.368Z,15.73
2018-05-03T10:25:20.775Z,15.55
2018-05-03T10:27:49.098Z,15.51
2018-05-03T10:30:17.437Z,15.45
2018-05-03T10:32:45.859Z,15.45
2018-05-03T10:35:14.202Z,15.47
2018-05-03T10:37:42.528Z,15.47
2018-05-03T10:40:10.922Z,15.54
2018-05-03T10:42:39.354Z,15.68
2018-05-03T10:45:07.666Z,15.63
2018-05-03T10:47:35.995Z,15.49
2018-05-03T10:50:04.382Z,15.39
2018-05-03T10:52:32.704Z,15.54
2018-05-03T10:55:01.188Z,15.44
2018-05-03T10:57:29.600Z,15.42
2018-05-03T10:59:58.009Z,15.51
2018-05-03T11:02:26.342Z,15.65
2018-05-03T11:04:54.677Z,15.74
2018-05-03T11:07:23.021Z,15.71
2018-05-03T11:09:51.377Z,15.70
2018-05-03T11:12:20.295Z,15.88
2018-05-03T11:14:48.730Z,16.15
2018-05-03T11:17:17.131Z,16.09
2018-05-03T11:19:45.466Z,16.26
2018-05-03T11:22:13.796Z,16.68
2018-05-03T11:24:42.174Z,16.87
2018-05-03T11:27:10.505Z,17.36
2018-05-03T11:29:38.923Z,17.55
2018-05-03T11:32:07.298Z,17.76
2018-05-03T11:34:35.637Z,17.87
2018-05-03T11:37:04.066Z,18.46
2018-05-03T11:39:32.319Z,18.56
2018-05-03T11:42:00.700Z,18.60
2018-05-03T11:44:29.098Z,18.82
2018-05-03T11:46:57.499Z,18.94
2018-05-03T11:49:25.947Z,19.29
2018-05-03T11:51:54.313Z,19.30
2018-05-03T11:54:22.698Z,19.48
2018-05-03T11:56:51.075Z,19.36
2018-05-03T11:59:19.483Z,19.15
2018-05-03T12:01:47.858Z,19.46
2018-05-03T12:04:16.251Z,19.98
2018-05-03T12:06:44.587Z,20.08
2018-05-03T12:09:12.919Z,19.97
2018-05-03T12:11:41.945Z,20.89
2018-05-03T12:14:10.277Z,20.30
2018-05-03T12:16:38.619Z,20.99
2018-05-03T12:19:06.947Z,21.02
2018-05-03T12:21:35.283Z,21.24
2018-05-03T12:24:03.663Z,21.98
2018-05-03T12:26:32.080Z,22.49
2018-05-03T12:29:00.428Z,22.81
2018-05-03T12:31:28.754Z,23.89
2018-05-03T12:33:57.112Z,23.09
2018-05-03T12:36:25.456Z,22.40
2018-05-03T12:38:53.789Z,22.93
2018-05-03T12:41:22.103Z,22.94
2018-05-03T12:43:50.449Z,22.50
2018-05-03T12:46:18.817Z,22.02
2018-05-03T12:48:47.155Z,22.65
2018-05-03T12:51:15.479Z,23.47
2018-05-03T12:53:43.894Z,23.31
2018-05-03T12:56:12.282Z,23.57
2018-05-03T12:58:40.635Z,22.91
2018-05-03T13:01:08.956Z,23.05
2018-05-03T13:03:37.317Z,23.20
2018-05-03T13:06:05.646Z,23.37
2018-05-03T13:08:34.029Z,23.78
2018-05-03T13:11:02.361Z,23.45
2018-05-03T13:13:30.692Z,23.40
2018-05-03T13:15:59.063Z,23.47
2018-05-03T13:18:27.375Z,23.48
2018-05-03T13:20:55.716Z,22.93
2018-05-03T13:23:24.070Z,22.91
2018-05-03T13:25:52.441Z,22.46
2018-05-03T13:28:20.773Z,22.25
2018-05-03T13:30:49.148Z,22.39
2018-05-03T13:33:17.478Z,22.40
2018-05-03T13:35:45.856Z,22.46
2018-05-03T13:38:14.248Z,22.60
2018-05-03T13:40:42.585Z,23.09
2018-05-03T13:43:11.026Z,22.69
2018-05-03T13:45:39.381Z,22.66
2018-05-03T13:48:07.746Z,22.90
2018-05-03T13:50:36.105Z,23.00
2018-05-03T13:53:04.468Z,22.93
2018-05-03T13:55:32.850Z,22.81
2018-05-03T13:58:01.188Z,22.77
2018-05-03T14:00:29.515Z,22.29
2018-05-03T14:02:57.829Z,21.91
2018-05-03T14:05:26.245Z,21.95
2018-05-03T14:07:54.642Z,22.26
2018-05-03T14:10:22.994Z,22.24
2018-05-03T14:12:51.344Z,22.38
2018-05-03T14:15:19.711Z,22.50
2018-05-03T14:17:48.080Z,22.29
2018-05-03T14:20:16.409Z,22.46
2018-05-03T14:22:44.760Z,22.50
2018-05-03T14:25:13.087Z,22.33
2018-05-03T14:27:41.451Z,22.07
2018-05-03T14:30:09.862Z,21.79
2018-05-03T14:32:38.240Z,21.83
2018-05-03T14:35:06.583Z,21.88
2018-05-03T14:37:34.962Z,21.61
2018-05-03T14:40:03.315Z,21.73
2018-05-03T14:42:31.644Z,21.80
2018-05-03T14:45:00.052Z,21.69
2018-05-03T14:47:28.406Z,21.98
2018-05-03T14:49:56.729Z,21.94
2018-05-03T14:52:25.095Z,21.86
2018-05-03T14:54:53.439Z,21.73
2018-05-03T14:57:21.788Z,21.32
2018-05-03T14:59:50.141Z,21.18
2018-05-03T15:02:18.490Z,21.29
2018-05-03T15:04:46.943Z,20.96
2018-05-03T15:07:15.266Z,20.91
2018-05-03T15:09:43.618Z,20.80
2018-05-03T15:12:11.947Z,20.71
2018-05-03T15:14:40.299Z,20.80
2018-05-03T15:17:08.636Z,20.83
2018-05-03T15:19:36.958Z,20.53
2018-05-03T15:22:05.280Z,20.44
2018-05-03T15:24:33.687Z,20.52
2018-05-03T15:27:01.999Z,20.30
2018-05-03T15:29:30.330Z,20.38
2018-05-03T15:31:58.662Z,20.23
2018-05-03T15:34:27.522Z,20.38
2018-05-03T15:36:56.032Z,20.23
2018-05-03T15:39:24.452Z,20.35
2018-05-03T15:41:52.873Z,20.29
2018-05-03T15:44:21.214Z,20.36
2018-05-03T15:46:49.528Z,20.56
2018-05-03T15:49:17.854Z,20.65
2018-05-03T15:51:46.219Z,20.69
2018-05-03T15:54:14.544Z,20.71
2018-05-03T15:56:42.858Z,20.71
2018-05-03T15:59:11.195Z,20.59
2018-05-03T16:01:39.535Z,20.63
2018-05-03T16:04:08.866Z,20.36
2018-05-03T16:06:37.184Z,20.28
2018-05-03T16:09:06.447Z,20.15
2018-05-03T16:11:34.775Z,20.19
2018-05-03T16:14:03.115Z,20.13
2018-05-03T16:16:31.479Z,19.99
2018-05-03T16:19:00.069Z,19.86
2018-05-03T16:21:28.403Z,19.84
2018-05-03T16:23:56.729Z,19.74
2018-05-03T16:26:25.068Z,19.79
2018-05-03T16:28:54.361Z,19.72
2018-05-03T16:31:22.707Z,19.75
2018-05-03T16:33:51.027Z,19.79
2018-05-03T16:36:19.386Z,19.73
2018-05-03T16:38:47.715Z,19.73
2018-05-03T16:41:16.068Z,19.66
2018-05-03T16:43:44.386Z,19.66
2018-05-03T16:46:12.710Z,19.62
2018-05-03T16:48:41.042Z,19.41
2018-05-03T16:51:09.391Z,19.36
2018-05-03T16:53:37.955Z,19.47
2018-05-03T16:56:06.298Z,19.41
2018-05-03T16:58:34.607Z,19.39
2018-05-03T17:01:03.063Z,19.34
2018-05-03T17:03:31.390Z,19.39
2018-05-03T17:06:00.725Z,19.39
2018-05-03T17:08:29.062Z,19.28
2018-05-03T17:10:57.381Z,19.33
2018-05-03T17:13:25.728Z,19.38
2018-05-03T17:15:54.046Z,19.25
2018-05-03T17:18:22.401Z,19.13
2018-05-03T17:20:50.743Z,19.04
2018-05-03T17:23:23.571Z,18.97
2018-05-03T17:25:51.927Z,18.88
2018-05-03T17:28:20.370Z,18.89
2018-05-03T17:30:48.787Z,18.84
2018-05-03T17:33:17.166Z,18.75
2018-05-03T17:35:46.284Z,18.66
2018-05-03T17:38:14.622Z,18.65
2018-05-03T17:40:42.966Z,18.62
2018-05-03T17:43:11.299Z,18.57
2018-05-03T17:45:39.633Z,18.51
2018-05-03T17:48:08.025Z,18.49
2018-05-03T17:50:36.419Z,18.54
2018-05-03T17:53:04.884Z,18.48
2018-05-03T17:55:33.229Z,18.39
2018-05-03T17:58:01.547Z,18.36
2018-05-03T18:00:29.863Z,18.30
2018-05-03T18:02:58.177Z,18.15
2018-05-03T18:05:26.525Z,18.17
2018-05-03T18:07:55.013Z,18.15
2018-05-03T18:10:23.391Z,18.03
2018-05-03T18:12:51.799Z,17.93
2018-05-03T18:15:20.156Z,17.89
2018-05-03T18:17:48.491Z,17.86
2018-05-03T18:20:16.932Z,17.88
2018-05-03T18:22:45.265Z,17.80
2018-05-03T18:25:13.635Z,17.73
2018-05-03T18:27:41.955Z,17.71
2018-05-03T18:30:10.392Z,17.67
2018-05-03T18:32:38.822Z,17.63
2018-05-03T18:35:07.124Z,17.61
2018-05-03T18:37:35.566Z,17.55
2018-05-03T18:40:03.959Z,17.46
2018-05-03T18:42:32.306Z,17.35
2018-05-03T18:45:00.635Z,17.23
2018-05-03T18:47:28.988Z,17.15
2018-05-03T18:49:57.378Z,17.13
2018-05-03T18:52:25.735Z,17.05
2018-05-03T18:54:54.063Z,17.03
2018-05-03T18:57:22.417Z,16.89
2018-05-03T18:59:50.762Z,16.84
2018-05-03T19:02:19.188Z,16.80
2018-05-03T19:04:47.647Z,16.67
2018-05-03T19:07:15.966Z,16.64
2018-05-03T19:09:44.342Z,16.66
2018-05-03T19:12:12.681Z,16.62
2018-05-03T19:14:41.014Z,16.70
2018-05-03T19:17:09.386Z,16.72
2018-05-03T19:19:37.729Z,16.75
2018-05-03T19:22:06.105Z,16.72
2018-05-03T19:24:34.464Z,16.74
2018-05-03T19:27:02.815Z,16.80
2018-05-03T19:29:31.128Z,16.78
2018-05-03T19:31:59.453Z,16.81
2018-05-03T19:34:27.765Z,16.74
2018-05-03T19:36:56.139Z,16.70
2018-05-03T19:39:24.559Z,16.68
2018-05-03T19:41:52.954Z,16.68
2018-05-03T19:44:21.290Z,16.65
2018-05-03T19:46:49.615Z,16.62
2018-05-03T19:49:17.957Z,16.51
2018-05-03T19:51:46.331Z,16.54
2018-05-03T19:54:14.699Z,16.56
2018-05-03T19:56:43.004Z,16.55
2018-05-03T19:59:11.393Z,16.52
2018-05-03T20:01:39.806Z,16.45
2018-05-03T20:04:08.219Z,16.43
2018-05-03T20:06:36.577Z,16.39
2018-05-03T20:09:04.912Z,16.36
2018-05-03T20:11:33.249Z,16.32
2018-05-03T20:14:01.596Z,16.28
2018-05-03T20:16:29.937Z,16.18
2018-05-03T20:18:58.328Z,16.24
2018-05-03T20:21:26.717Z,16.17
2018-05-03T20:23:55.035Z,16.16
2018-05-03T20:26:23.378Z,16.15
2018-05-03T20:28:51.819Z,16.15
2018-05-03T20:31:20.140Z,16.09
2018-05-03T20:33:49.492Z,16.12
2018-05-03T20:36:17.991Z,16.08
2018-05-03T20:38:46.325Z,15.97
2018-05-03T20:41:14.626Z,15.88
2018-05-03T20:43:43.265Z,15.83
2018-05-03T20:46:11.773Z,15.87
2018-05-03T20:48:40.063Z,15.82
2018-05-03T20:51:08.475Z,15.75
2018-05-03T20:53:36.797Z,15.63
2018-05-03T20:56:05.111Z,15.61
2018-05-03T20:58:33.532Z,15.58
2018-05-03T21:01:01.838Z,15.57
2018-05-03T21:03:30.179Z,15.51
2018-05-03T21:05:58.497Z,15.45
2018-05-03T21:08:26.885Z,15.40
2018-05-03T21:10:55.213Z,15.34
2018-05-03T21:13:23.538Z,15.34
2018-05-03T21:15:51.874Z,15.26
2018-05-03T21:18:20.212Z,15.23
2018-05-03T21:20:48.738Z,15.15
2018-05-03T21:23:17.098Z,15.04
2018-05-03T21:25:45.413Z,15.03
2018-05-03T21:28:13.818Z,15.00
2018-05-03T21:30:42.168Z,14.97
2018-05-03T21:33:10.504Z,14.93
2018-05-03T21:35:38.887Z,14.87
2018-05-03T21:38:07.220Z,14.81
2018-05-03T21:40:35.551Z,14.82
2018-05-03T21:43:03.980Z,14.78
2018-05-03T21:45:32.299Z,14.77
2018-05-03T21:48:00.612Z,14.78
2018-05-03T21:50:28.963Z,14.69
2018-05-03T21:52:57.353Z,14.70
2018-05-03T21:55:25.659Z,14.62
2018-05-03T21:57:53.995Z,14.60
2018-05-03T22:00:22.344Z,14.60
2018-05-03T22:02:50.708Z,14.53
2018-05-03T22:05:19.026Z,14.54
2018-05-03T22:07:47.384Z,14.53
2018-05-03T22:10:15.726Z,14.51
2018-05-03T22:12:44.052Z,14.43
2018-05-03T22:15:12.443Z,14.43
2018-05-03T22:17:40.776Z,14.29
2018-05-03T22:20:09.095Z,14.31
2018-05-03T22:22:37.498Z,14.25
2018-05-03T22:25:05.816Z,14.21
2018-05-03T22:27:34.158Z,14.17
2018-05-03T22:33:01.666Z,14.02
2018-05-03T22:35:30.132Z,14.01
2018-05-03T22:37:58.593Z,13.88
2018-05-03T22:40:26.966Z,13.90
2018-05-03T22:42:55.291Z,13.84
2018-05-03T22:45:23.630Z,13.78
2018-05-03T22:47:51.962Z,13.71
2018-05-03T22:50:20.281Z,13.65
2018-05-03T22:52:48.670Z,13.66
2018-05-03T22:55:16.986Z,13.64
2018-05-03T22:57:45.316Z,13.60
2018-05-03T23:00:13.637Z,13.56
2018-05-03T23:02:41.948Z,13.57
2018-05-03T23:05:10.269Z,13.57
2018-05-03T23:07:38.606Z,13.49
2018-05-03T23:10:06.943Z,13.55
2018-05-03T23:12:35.278Z,13.54
2018-05-03T23:15:03.607Z,13.51
2018-05-03T23:17:31.935Z,13.41
2018-05-03T23:20:00.343Z,13.40
2018-05-03T23:22:32.595Z,13.41
2018-05-03T23:25:00.925Z,13.40
2018-05-03T23:27:29.247Z,13.40
2018-05-03T23:29:57.603Z,13.35
2018-05-03T23:32:26.000Z,13.21
2018-05-03T23:34:54.410Z,13.23
2018-05-03T23:37:22.727Z,13.23
2018-05-03T23:39:51.078Z,13.18
2018-05-03T23:42:19.397Z,13.13
2018-05-03T23:44:47.754Z,13.15
2018-05-03T23:47:16.165Z,13.13
2018-05-03T23:49:44.551Z,13.14
2018-05-03T23:52:12.895Z,13.13
2018-05-03T23:54:41.236Z,13.11
2018-05-03T23:57:09.555Z,13.05
2018-05-03T23:59:37.922Z,13.00
